Impacts TAF Board
For situational awareness. Not to be used for flight planning purposes.
IDs:

KASD - Slidell Arpt, LA, US

Issued at 1144 UTC 15 Oct 2018
Updated at 1441 UTC 15 Oct 2018
Potential Impact None Slight Moderate High
Time<<16/03Z 16/04Z 16/05Z 16/06Z 16/07Z 16/08Z 16/09Z 16/10Z 16/11Z 16/12Z 16/13Z 16/14Z 16/15Z>>
Type PRVL PRVL PRVL PRVL PRVL PRVL PRVL PRVL PRVL
VIS >6 >6 >6 >6 6 6 6 6 6
CIG 25 25 25 25 30 30 30 30 30
Cover BKN OVC OVC OVC OVC OVC OVC OVC OVC
FltCat MVFR MVFR MVFR MVFR MVFR MVFR MVFR MVFR MVFR
WX VCSH VCSH VCSH VCSH BR BR BR BR BR
WDir 120 20 20 20 VRB VRB VRB VRB VRB
WSpd 4 5 5 5 4 4 4 4 4
WGst -- -- -- -- -- -- -- -- --
Raw TAF
KASD 151144Z 1512/1612 00000KT P6SM SKC
  FM151500 12004KT P6SM VCSH BKN025 BKN070
  TEMPO 1517/1521 4SM -TSRA OVC015CB
  FM160400 02005KT P6SM VCSH BKN025 OVC030
  FM160700 VRB04KT 6SM BR SCT008 BKN030 OVC050


METAR Board
Radar Display
Forecast Discussion
For situational awareness. Not to be used for flight planning purposes.